createdAt,value
2019-03-17T00:03:06.864Z,1004.9
2019-03-17T00:08:06.489Z,1004.82
2019-03-17T00:13:06.474Z,1004.83
2019-03-17T00:18:06.825Z,1004.78
2019-03-17T00:23:06.295Z,1004.69
2019-03-17T00:28:06.818Z,1004.67
2019-03-17T00:33:06.908Z,1004.67
2019-03-17T00:38:06.462Z,1004.54
2019-03-17T00:43:06.395Z,1004.51
2019-03-17T00:47:06.364Z,1004.42
2019-03-17T00:52:06.901Z,1004.36
2019-03-17T00:57:06.300Z,1004.3
2019-03-17T01:02:06.961Z,1004.32
2019-03-17T01:07:06.485Z,1004.28
2019-03-17T01:12:06.313Z,1004.27
2019-03-17T01:17:06.811Z,1004.19
2019-03-17T01:21:06.313Z,1004.16
2019-03-17T01:26:06.838Z,1003.99
2019-03-17T01:31:06.479Z,1003.94
2019-03-17T01:36:06.949Z,1003.96
2019-03-17T01:41:06.678Z,1003.86
2019-03-17T01:46:07.109Z,1003.78
2019-03-17T01:51:06.739Z,1003.67
2019-03-17T01:56:06.187Z,1003.65
2019-03-17T02:01:06.951Z,1003.59
2019-03-17T02:05:20.854Z,1003.63
2019-03-17T02:10:07.052Z,1003.57
2019-03-17T02:15:07.883Z,1003.45
2019-03-17T02:20:07.126Z,1003.45
2019-03-17T02:25:06.551Z,1003.39
2019-03-17T02:30:08.328Z,1003.44
2019-03-17T02:35:06.440Z,1003.28
2019-03-17T02:40:06.589Z,1003.35
2019-03-17T02:44:07.420Z,1003.23
2019-03-17T02:49:07.373Z,1003.17
2019-03-17T02:54:06.935Z,1003.07
2019-03-17T02:59:06.493Z,1003.05
2019-03-17T03:04:06.189Z,1002.98
2019-03-17T03:09:07.275Z,1002.9
2019-03-17T03:14:06.943Z,1002.81
2019-03-17T03:18:06.364Z,1002.8
2019-03-17T03:23:06.899Z,1002.69
2019-03-17T03:28:06.401Z,1002.69
2019-03-17T03:33:06.968Z,1002.58
2019-03-17T03:38:06.743Z,1002.56
2019-03-17T03:43:06.777Z,1002.38
2019-03-17T03:48:06.291Z,1002.29
2019-03-17T03:53:06.794Z,1002.27
2019-03-17T03:57:06.545Z,1002.21
2019-03-17T04:02:06.349Z,1002.18
2019-03-17T04:07:07.061Z,1002.14
2019-03-17T04:12:07.139Z,1002.11
2019-03-17T04:17:06.304Z,1002.07
2019-03-17T04:22:06.820Z,1001.95
2019-03-17T04:27:06.350Z,1001.88
2019-03-17T04:32:06.658Z,1001.82
2019-03-17T04:37:06.287Z,1001.82
2019-03-17T04:41:06.212Z,1001.82
2019-03-17T04:46:07.007Z,1001.7
2019-03-17T04:51:06.535Z,1001.65
2019-03-17T04:56:06.896Z,1001.6
2019-03-17T05:01:07.300Z,1001.61
2019-03-17T05:06:06.395Z,1001.56
2019-03-17T05:11:06.806Z,1001.47
2019-03-17T05:16:06.607Z,1001.4
2019-03-17T05:21:06.593Z,1001.37
2019-03-17T05:25:09.009Z,1001.26
2019-03-17T05:30:08.258Z,1001.15
2019-03-17T05:35:07.271Z,1001.12
2019-03-17T05:40:06.953Z,1001.08
2019-03-17T05:45:09.018Z,1001.09
2019-03-17T05:50:07.336Z,1001.12
2019-03-17T05:55:06.739Z,1001.04
2019-03-17T06:00:08.709Z,1001.06
2019-03-17T06:04:06.896Z,1001
2019-03-17T06:09:07.754Z,1001.04
2019-03-17T06:14:07.250Z,1000.96
2019-03-17T06:19:07.380Z,1001.03
2019-03-17T06:24:06.921Z,1001.12
2019-03-17T06:29:07.369Z,1001.08
2019-03-17T06:34:06.829Z,1001.19
2019-03-17T06:39:07.788Z,1001.2
2019-03-17T06:44:07.332Z,1001.21
2019-03-17T06:48:06.795Z,1001.29
2019-03-17T06:53:07.114Z,1001.23
2019-03-17T06:58:06.654Z,1001.19
2019-03-17T07:03:06.771Z,1001.09
2019-03-17T07:08:07.315Z,1001.16
2019-03-17T07:13:07.239Z,1001.12
2019-03-17T07:18:07.283Z,1001.11
2019-03-17T07:23:06.729Z,1001.14
2019-03-17T07:28:07.136Z,1001.04
2019-03-17T07:32:07.299Z,1001.05
2019-03-17T07:37:07.790Z,1001.09
2019-03-17T07:42:06.971Z,1001.16
2019-03-17T07:47:07.049Z,1000.91
2019-03-17T07:52:06.515Z,1000.95
2019-03-17T07:57:07.019Z,1001.08
2019-03-17T08:02:06.724Z,1001.04
2019-03-17T08:07:07.262Z,1001.13
2019-03-17T08:11:06.691Z,1001.06
2019-03-17T08:16:06.626Z,1001.03
2019-03-17T08:21:06.138Z,1001.06
2019-03-17T08:26:06.601Z,1001.08
2019-03-17T08:31:06.811Z,1001.01
2019-03-17T08:36:06.346Z,1001.13
2019-03-17T08:41:06.214Z,1001.07
2019-03-17T08:46:06.202Z,1001.21
2019-03-17T08:50:07.184Z,1001.32
2019-03-17T08:51:06.318Z,1001.32
2019-03-17T08:55:06.805Z,1001.09
2019-03-17T09:00:07.739Z,1001.05
2019-03-17T09:05:06.258Z,1001.21
2019-03-17T09:10:07.180Z,1001.34
2019-03-17T09:15:08.139Z,1001.32
2019-03-17T09:20:07.225Z,1001.37
2019-03-17T09:24:16.503Z,1001.33
2019-03-17T09:29:07.168Z,1001.23
2019-03-17T09:34:06.321Z,1001.28
2019-03-17T09:39:07.219Z,1001.13
2019-03-17T09:44:07.275Z,1001.22
2019-03-17T09:49:07.166Z,1001.1
2019-03-17T09:54:06.686Z,1001.1
2019-03-17T09:59:06.619Z,1001.24
2019-03-17T10:03:06.397Z,1001.3
2019-03-17T10:08:06.338Z,1001.51
2019-03-17T10:13:06.283Z,1001.3
2019-03-17T10:18:06.663Z,1001.41
2019-03-17T10:23:07.212Z,1001.39
2019-03-17T10:28:06.310Z,1001.24
2019-03-17T10:33:06.172Z,1001.5
2019-03-17T10:38:06.716Z,1001.4
2019-03-17T10:43:06.683Z,1001.47
2019-03-17T10:47:06.436Z,1001.54
2019-03-17T10:52:07.018Z,1001.55
2019-03-17T10:57:06.566Z,1001.35
2019-03-17T11:02:07.244Z,1001.42
2019-03-17T11:07:06.751Z,1001.35
2019-03-17T11:12:06.668Z,1001.42
2019-03-17T11:16:07.203Z,1001.34
2019-03-17T11:21:06.810Z,1001.29
2019-03-17T11:26:06.271Z,1001.51
2019-03-17T11:31:06.539Z,1001.42
2019-03-17T11:36:07.238Z,1001.49
2019-03-17T11:41:06.190Z,1001.51
2019-03-17T11:46:06.653Z,1001.5
2019-03-17T11:50:06.756Z,1001.44
2019-03-17T11:55:06.216Z,1001.33
2019-03-17T12:05:06.232Z,1001.29
2019-03-17T12:10:07.145Z,1001.26
2019-03-17T12:15:07.856Z,1001.06
2019-03-17T12:20:07.444Z,1001.07
2019-03-17T12:25:06.977Z,1001.04
2019-03-17T12:34:06.311Z,1001.05
2019-03-17T12:39:07.141Z,1001.01
2019-03-17T12:44:06.701Z,1001.23
2019-03-17T12:49:06.912Z,1001.28
2019-03-17T12:54:06.358Z,1001.36
2019-03-17T12:59:06.931Z,1001.46
2019-03-17T13:03:06.233Z,1001.48
2019-03-17T13:08:07.106Z,1001.55
2019-03-17T13:13:07.067Z,1001.57
2019-03-17T13:18:07.072Z,1002.19
2019-03-17T13:23:06.677Z,1002.29
2019-03-17T13:28:07.520Z,1002.56
2019-03-17T13:32:06.316Z,1002.97
2019-03-17T13:37:06.984Z,1002.95
2019-03-17T13:42:06.860Z,1003.1
2019-03-17T13:47:06.268Z,1003.14
2019-03-17T13:52:06.738Z,1003.17
2019-03-17T13:57:06.240Z,1003.29
2019-03-17T14:01:07.112Z,1003.43
2019-03-17T14:06:06.595Z,1003.35
2019-03-17T14:11:06.393Z,1003.38
2019-03-17T14:16:06.458Z,1003.45
2019-03-17T14:21:06.976Z,1003.53
2019-03-17T14:26:06.533Z,1003.56
2019-03-17T14:30:09.447Z,1003.48
2019-03-17T14:31:06.952Z,1003.48
2019-03-17T14:36:06.472Z,1003.69
2019-03-17T14:40:06.260Z,1003.85
2019-03-17T14:45:07.884Z,1003.92
2019-03-17T14:50:07.011Z,1004.02
2019-03-17T14:55:06.567Z,1003.93
2019-03-17T15:00:08.864Z,1003.96
2019-03-17T15:05:07.370Z,1004.08
2019-03-17T15:10:06.235Z,1003.91
2019-03-17T15:15:08.061Z,1003.63
2019-03-17T15:19:07.366Z,1003.64
2019-03-17T15:24:06.998Z,1003.88
2019-03-17T15:29:06.747Z,1003.88
2019-03-17T15:34:07.073Z,1003.89
2019-03-17T15:39:07.022Z,1003.95
2019-03-17T15:44:06.671Z,1004
2019-03-17T15:48:06.596Z,1003.93
2019-03-17T15:53:07.083Z,1003.83
2019-03-17T15:58:06.484Z,1003.94
2019-03-17T16:03:06.945Z,1004.06
2019-03-17T16:08:06.549Z,1004.03
2019-03-17T16:13:07.498Z,1004.07
2019-03-17T16:18:06.528Z,1004.44
2019-03-17T16:22:06.668Z,1004.37
2019-03-17T16:27:06.513Z,1004.42
2019-03-17T16:32:06.383Z,1004.55
2019-03-17T16:37:06.925Z,1004.71
2019-03-17T16:42:06.722Z,1004.82
2019-03-17T16:47:06.220Z,1004.85
2019-03-17T16:51:06.774Z,1004.94
2019-03-17T16:56:06.262Z,1004.9
2019-03-17T17:01:07.329Z,1004.84
2019-03-17T17:06:06.911Z,1005.02
2019-03-17T17:11:06.866Z,1005.08
2019-03-17T17:16:06.442Z,1005.17
2019-03-17T17:21:06.830Z,1005.09
2019-03-17T17:25:07.352Z,1005.49
2019-03-17T17:30:07.825Z,1005.47
2019-03-17T17:35:06.758Z,1005.43
2019-03-17T17:40:07.003Z,1005.65
2019-03-17T17:45:08.460Z,1005.82
2019-03-17T17:50:06.312Z,1005.96
2019-03-17T17:55:06.884Z,1005.94
2019-03-17T17:59:06.260Z,1006.04
2019-03-17T18:04:07.242Z,1006.23
2019-03-17T18:09:07.066Z,1006.08
2019-03-17T18:14:06.597Z,1006.26
2019-03-17T18:19:06.180Z,1006.52
2019-03-17T18:24:06.670Z,1006.42
2019-03-17T18:29:07.136Z,1006.68
2019-03-17T18:34:06.279Z,1006.39
2019-03-17T18:38:06.721Z,1006.76
2019-03-17T18:43:06.622Z,1006.95
2019-03-17T18:48:06.608Z,1007.01
2019-03-17T18:53:07.031Z,1007.02
2019-03-17T18:58:06.554Z,1007.09
2019-03-17T19:03:07.470Z,1007.21
2019-03-17T19:08:07.547Z,1007.15
2019-03-17T19:12:08.453Z,1007.17
2019-03-17T19:17:06.691Z,1007.19
2019-03-17T19:22:07.248Z,1007.25
2019-03-17T19:27:06.584Z,1007.17
2019-03-17T19:32:06.398Z,1007.24
2019-03-17T19:37:06.961Z,1007.2
2019-03-17T19:42:06.890Z,1007.12
2019-03-17T19:46:06.767Z,1007.07
2019-03-17T19:51:06.578Z,1007.1
2019-03-17T19:56:07.124Z,1007.13
2019-03-17T20:01:06.921Z,1007.33
2019-03-17T20:06:07.427Z,1007.44
2019-03-17T20:11:07.125Z,1007.57
2019-03-17T20:16:07.184Z,1007.64
2019-03-17T20:21:06.499Z,1007.8
2019-03-17T20:25:07.226Z,1007.68
2019-03-17T20:30:08.089Z,1007.63
2019-03-17T20:35:06.665Z,1007.67
2019-03-17T20:40:06.705Z,1007.8
2019-03-17T20:45:08.814Z,1007.75
2019-03-17T20:50:07.072Z,1007.83
2019-03-17T20:55:06.804Z,1008.17
2019-03-17T20:59:06.170Z,1008.09
2019-03-17T21:04:06.684Z,1008.31
2019-03-17T21:09:07.142Z,1008.27
2019-03-17T21:14:07.031Z,1008.45
2019-03-17T21:19:06.910Z,1008.62
2019-03-17T21:24:06.535Z,1008.77
2019-03-17T21:29:06.975Z,1008.83
2019-03-17T21:33:07.320Z,1008.73
2019-03-17T21:38:06.824Z,1008.71
2019-03-17T21:43:06.762Z,1008.67
2019-03-17T21:48:06.963Z,1008.86
2019-03-17T21:53:07.344Z,1008.96
2019-03-17T21:58:08.682Z,1009.07
2019-03-17T22:03:06.287Z,1008.96
2019-03-17T22:07:07.149Z,1009.01
2019-03-17T22:12:07.456Z,1009.02
2019-03-17T22:17:06.643Z,1009.05
2019-03-17T22:22:09.480Z,1008.91
2019-03-17T22:27:07.002Z,1009.05
2019-03-17T22:32:07.025Z,1009.14
2019-03-17T22:36:06.161Z,1009.17
2019-03-17T22:41:07.129Z,1009.28
2019-03-17T22:46:06.646Z,1009.39
2019-03-17T22:51:06.178Z,1009.5
2019-03-17T22:56:06.925Z,1009.44
2019-03-17T23:01:07.063Z,1009.46
2019-03-17T23:06:06.511Z,1009.42
2019-03-17T23:11:06.130Z,1009.34
2019-03-17T23:15:08.896Z,1009.39
2019-03-17T23:20:07.933Z,1009.33
2019-03-17T23:25:07.498Z,1009.47
2019-03-17T23:30:09.435Z,1009.49
2019-03-17T23:35:07.138Z,1009.47
2019-03-17T23:40:10.274Z,1009.53
2019-03-17T23:45:09.444Z,1009.52
2019-03-17T23:50:07.774Z,1009.6
2019-03-17T23:54:06.630Z,1009.57
2019-03-17T23:59:07.185Z,1009.58
